createdAt,value
2023-04-26T00:01:58.698Z,101108.41
2023-04-26T00:04:25.639Z,101113.84
2023-04-26T00:06:52.453Z,101107.72
2023-04-26T00:09:21.801Z,101111.50
2023-04-26T00:11:48.399Z,101113.13
2023-04-26T00:14:15.051Z,101111.66
2023-04-26T00:16:41.731Z,101115.84
2023-04-26T00:19:10.579Z,101111.91
2023-04-26T00:21:37.166Z,101115.13
2023-04-26T00:24:05.560Z,101119.47
2023-04-26T00:26:34.249Z,101117.19
2023-04-26T00:29:02.040Z,101121.34
2023-04-26T00:31:28.776Z,101127.41
2023-04-26T00:33:55.456Z,101117.13
2023-04-26T00:36:22.276Z,101119.38
2023-04-26T00:38:48.937Z,101115.63
2023-04-26T00:41:15.514Z,101113.13
2023-04-26T00:43:42.086Z,101113.84
2023-04-26T00:46:12.367Z,101095.34
2023-04-26T00:48:39.178Z,101100.91
2023-04-26T00:51:06.518Z,101106.53
2023-04-26T00:53:35.355Z,101112.97
2023-04-26T00:56:02.503Z,101107.09
2023-04-26T00:58:29.880Z,101104.91
2023-04-26T01:00:56.859Z,101113.44
2023-04-26T01:03:23.713Z,101106.53
2023-04-26T01:05:50.753Z,101100.41
2023-04-26T01:08:20.770Z,101103.78
2023-04-26T01:10:48.882Z,101111.75
2023-04-26T01:13:17.079Z,101113.44
2023-04-26T01:15:47.379Z,101116.66
2023-04-26T01:18:14.888Z,101115.69
2023-04-26T01:20:43.032Z,101113.59
2023-04-26T01:23:10.466Z,101122.09
2023-04-26T01:25:38.803Z,101125.16
2023-04-26T01:28:05.486Z,101121.44
2023-04-26T01:30:32.051Z,101123.03
2023-04-26T01:33:01.682Z,101119.97
2023-04-26T01:35:28.322Z,101123.69
2023-04-26T01:37:54.928Z,101117.09
2023-04-26T01:40:21.985Z,101116.75
2023-04-26T01:42:48.501Z,101123.34
2023-04-26T01:45:15.740Z,101115.91
2023-04-26T01:48:01.149Z,101128.31
2023-04-26T01:50:31.894Z,101125.66
2023-04-26T01:52:58.522Z,101121.75
2023-04-26T01:55:25.094Z,101123.63
2023-04-26T01:57:51.677Z,101116.13
2023-04-26T02:00:18.561Z,101118.59
2023-04-26T02:02:48.895Z,101118.34
2023-04-26T02:05:15.669Z,101121.41
2023-04-26T02:07:42.257Z,101121.88
2023-04-26T02:10:09.351Z,101116.91
2023-04-26T02:12:36.322Z,101120.28
2023-04-26T02:15:03.114Z,101118.22
2023-04-26T02:17:29.766Z,101118.47
2023-04-26T02:19:57.029Z,101116.38
2023-04-26T02:22:25.291Z,101119.34
2023-04-26T02:24:52.804Z,101116.63
2023-04-26T02:27:19.868Z,101112.75
2023-04-26T02:29:46.809Z,101118.50
2023-04-26T02:32:14.457Z,101121.94
2023-04-26T02:34:41.733Z,101118.56
2023-04-26T02:37:08.978Z,101121.97
2023-04-26T02:39:35.914Z,101124.50
2023-04-26T02:42:02.516Z,101135.88
2023-04-26T02:44:30.979Z,101131.81
2023-04-26T02:46:58.024Z,101137.44
2023-04-26T02:49:24.891Z,101129.91
2023-04-26T02:51:51.808Z,101133.66
2023-04-26T02:54:18.625Z,101120.31
2023-04-26T02:56:45.609Z,101132.19
2023-04-26T02:59:12.239Z,101132.13
2023-04-26T03:01:38.937Z,101128.03
2023-04-26T03:04:05.892Z,101128.84
2023-04-26T03:06:34.431Z,101133.91
2023-04-26T03:09:01.192Z,101137.44
2023-04-26T03:11:27.829Z,101130.19
2023-04-26T03:13:54.402Z,101139.91
2023-04-26T03:16:24.049Z,101139.03
2023-04-26T03:18:51.100Z,101133.56
2023-04-26T03:21:17.877Z,101137.50
2023-04-26T03:23:44.683Z,101129.97
2023-04-26T03:26:11.281Z,101132.38
2023-04-26T03:28:38.375Z,101125.72
2023-04-26T03:31:05.149Z,101128.50
2023-04-26T03:33:32.193Z,101113.19
2023-04-26T03:35:59.062Z,101116.81
2023-04-26T03:38:26.155Z,101121.53
2023-04-26T03:40:52.834Z,101112.28
2023-04-26T03:43:19.416Z,101114.22
2023-04-26T03:45:49.369Z,101117.75
2023-04-26T03:48:17.182Z,101122.56
2023-04-26T03:50:45.979Z,101129.91
2023-04-26T03:53:12.961Z,101125.63
2023-04-26T03:55:39.721Z,101124.59
2023-04-26T03:58:08.013Z,101124.03
2023-04-26T04:00:38.649Z,101123.69
2023-04-26T04:03:07.749Z,101126.91
2023-04-26T04:05:34.733Z,101126.41
2023-04-26T04:08:01.835Z,101127.38
2023-04-26T04:10:29.405Z,101128.03
2023-04-26T04:12:56.044Z,101126.75
2023-04-26T04:15:23.323Z,101133.63
2023-04-26T04:17:50.119Z,101120.16
2023-04-26T04:20:16.970Z,101117.78
2023-04-26T04:22:43.608Z,101123.56
2023-04-26T04:25:10.930Z,101126.75
2023-04-26T04:27:38.854Z,101128.34
2023-04-26T04:30:07.698Z,101129.50
2023-04-26T04:32:39.357Z,101138.88
2023-04-26T04:35:07.295Z,101135.41
2023-04-26T04:37:34.964Z,101135.75
2023-04-26T04:40:02.268Z,101134.38
2023-04-26T04:42:32.242Z,101136.38
2023-04-26T04:44:59.701Z,101132.38
2023-04-26T04:47:27.432Z,101127.72
2023-04-26T04:49:54.098Z,101123.69
2023-04-26T04:52:21.764Z,101135.66
2023-04-26T04:54:48.683Z,101129.88
2023-04-26T04:57:16.615Z,101132.19
2023-04-26T04:59:44.474Z,101142.41
2023-04-26T05:02:11.492Z,101140.16
2023-04-26T05:04:38.362Z,101147.44
2023-04-26T05:07:06.575Z,101140.09
2023-04-26T05:09:34.074Z,101144.41
2023-04-26T05:12:01.380Z,101141.75
2023-04-26T05:14:29.713Z,101143.63
2023-04-26T05:16:56.647Z,101147.53
2023-04-26T05:19:23.364Z,101145.34
2023-04-26T05:21:49.915Z,101147.66
2023-04-26T05:24:17.017Z,101149.00
2023-04-26T05:26:43.761Z,101150.28
2023-04-26T05:29:32.426Z,101147.13
2023-04-26T05:32:18.349Z,101149.59
2023-04-26T05:35:09.073Z,101157.03
2023-04-26T05:37:36.162Z,101162.34
2023-04-26T05:40:04.669Z,101162.16
2023-04-26T05:42:31.316Z,101164.38
2023-04-26T05:44:59.008Z,101167.41
2023-04-26T05:47:27.209Z,101173.22
2023-04-26T05:49:54.007Z,101161.38
2023-04-26T05:52:20.561Z,101167.06
2023-04-26T05:54:47.968Z,101169.69
2023-04-26T05:57:14.568Z,101164.56
2023-04-26T05:59:41.221Z,101170.13
2023-04-26T06:02:08.267Z,101167.53
2023-04-26T06:04:35.464Z,101165.31
2023-04-26T06:07:14.773Z,101170.91
2023-04-26T06:09:41.365Z,101164.22
2023-04-26T06:12:08.418Z,101181.28
2023-04-26T06:14:39.485Z,101181.91
2023-04-26T06:17:10.691Z,101173.16
2023-04-26T06:19:37.325Z,101175.38
2023-04-26T06:22:03.974Z,101176.38
2023-04-26T06:24:30.694Z,101191.28
2023-04-26T06:26:58.355Z,101185.25
2023-04-26T06:29:25.038Z,101195.44
2023-04-26T06:31:51.599Z,101193.06
2023-04-26T06:34:22.271Z,101193.75
2023-04-26T06:36:48.832Z,101197.63
2023-04-26T06:39:17.143Z,101199.16
2023-04-26T06:41:44.079Z,101197.28
2023-04-26T06:44:11.746Z,101193.09
2023-04-26T06:46:42.398Z,101203.06
2023-04-26T06:49:12.781Z,101203.25
2023-04-26T06:51:39.754Z,101203.88
2023-04-26T06:54:06.429Z,101202.63
2023-04-26T06:56:33.044Z,101198.03
2023-04-26T06:59:01.821Z,101195.94
2023-04-26T07:01:29.423Z,101200.97
2023-04-26T07:03:57.610Z,101205.28
2023-04-26T07:06:26.192Z,101194.88
2023-04-26T07:08:53.248Z,101198.03
2023-04-26T07:11:20.869Z,101199.53
2023-04-26T07:13:47.727Z,101197.41
2023-04-26T07:16:14.382Z,101203.22
2023-04-26T07:18:41.628Z,101204.97
2023-04-26T07:21:08.566Z,101199.25
2023-04-26T07:23:35.480Z,101202.97
2023-04-26T07:26:04.198Z,101210.41
2023-04-26T07:28:31.802Z,101202.44
2023-04-26T07:31:00.192Z,101207.47
2023-04-26T07:33:27.352Z,101200.19
2023-04-26T07:35:59.376Z,101212.50
2023-04-26T07:38:26.004Z,101200.13
2023-04-26T07:40:52.763Z,101212.00
2023-04-26T07:43:20.774Z,101187.53
2023-04-26T07:45:47.400Z,101196.41
2023-04-26T07:48:14.172Z,101191.25
2023-04-26T07:50:40.742Z,101196.31
2023-04-26T07:53:07.302Z,101200.34
2023-04-26T07:55:33.865Z,101199.94
2023-04-26T07:58:00.831Z,101196.88
2023-04-26T08:00:27.732Z,101193.91
2023-04-26T08:02:54.497Z,101198.09
2023-04-26T08:05:22.157Z,101195.56
2023-04-26T08:07:48.786Z,101189.13
2023-04-26T08:10:15.818Z,101199.03
2023-04-26T08:12:42.419Z,101189.72
2023-04-26T08:15:11.015Z,101193.13
2023-04-26T08:17:37.727Z,101189.00
2023-04-26T08:20:09.832Z,101190.03
2023-04-26T08:22:39.004Z,101195.53
2023-04-26T08:25:06.448Z,101194.69
2023-04-26T08:27:34.409Z,101188.22
2023-04-26T08:30:01.071Z,101193.34
2023-04-26T08:32:27.669Z,101190.19
2023-04-26T08:34:54.304Z,101183.88
2023-04-26T08:37:20.907Z,101187.81
2023-04-26T08:39:47.429Z,101192.25
2023-04-26T08:42:16.170Z,101194.06
2023-04-26T08:44:44.391Z,101191.34
2023-04-26T08:47:28.715Z,101191.78
2023-04-26T08:49:59.768Z,101194.13
2023-04-26T08:52:31.538Z,101198.41
2023-04-26T08:54:59.686Z,101191.81
2023-04-26T08:57:27.039Z,101199.88
2023-04-26T08:59:53.851Z,101189.34
2023-04-26T09:02:22.274Z,101190.56
2023-04-26T09:04:50.719Z,101193.25
2023-04-26T09:07:41.609Z,101199.50
2023-04-26T09:10:09.778Z,101197.94
2023-04-26T09:12:37.191Z,101204.03
2023-04-26T09:15:07.292Z,101206.81
2023-04-26T09:17:39.056Z,101204.69
2023-04-26T09:20:24.208Z,101203.00
2023-04-26T09:22:53.187Z,101192.53
2023-04-26T09:25:29.311Z,101208.91
2023-04-26T09:27:56.377Z,101208.19
2023-04-26T09:30:23.583Z,101210.09
2023-04-26T09:33:06.909Z,101208.16
2023-04-26T09:35:41.935Z,101208.16
2023-04-26T09:38:17.649Z,101202.06
2023-04-26T09:40:49.378Z,101204.66
2023-04-26T09:43:22.587Z,101200.00
2023-04-26T09:45:54.054Z,101199.16
2023-04-26T09:48:30.378Z,101199.03
2023-04-26T09:50:59.355Z,101198.44
2023-04-26T09:53:28.855Z,101208.31
2023-04-26T09:55:56.721Z,101211.94
2023-04-26T09:58:23.582Z,101200.81
2023-04-26T10:00:54.599Z,101208.75
2023-04-26T10:03:23.167Z,101210.47
2023-04-26T10:05:50.190Z,101201.75
2023-04-26T10:08:16.753Z,101203.63
2023-04-26T10:10:43.901Z,101199.34
2023-04-26T10:13:11.611Z,101192.03
2023-04-26T10:15:39.817Z,101199.13
2023-04-26T10:18:06.994Z,101196.25
2023-04-26T10:20:35.326Z,101198.38
2023-04-26T10:23:05.103Z,101198.06
2023-04-26T10:25:36.534Z,101194.69
2023-04-26T10:28:03.622Z,101188.56
2023-04-26T10:30:30.446Z,101186.63
2023-04-26T10:32:56.980Z,101190.53
2023-04-26T10:35:26.071Z,101185.72
2023-04-26T10:38:01.829Z,101178.06
2023-04-26T10:40:32.467Z,101173.28
2023-04-26T10:43:19.752Z,101174.44
2023-04-26T10:45:47.589Z,101172.69
2023-04-26T10:48:14.085Z,101164.91
2023-04-26T10:50:59.469Z,101165.94
2023-04-26T10:53:26.234Z,101166.31
2023-04-26T10:55:53.262Z,101163.97
2023-04-26T10:58:29.429Z,101171.22
2023-04-26T11:01:20.964Z,101166.72
2023-04-26T11:04:11.565Z,101178.75
2023-04-26T11:06:59.974Z,101162.47
2023-04-26T11:09:39.745Z,101171.94
2023-04-26T11:12:16.401Z,101170.56
2023-04-26T11:14:45.507Z,101163.56
2023-04-26T11:17:13.080Z,101184.66
2023-04-26T11:19:41.894Z,101166.00
2023-04-26T11:22:08.758Z,101179.66
2023-04-26T11:24:42.645Z,101169.09
2023-04-26T11:27:13.033Z,101171.53
2023-04-26T11:29:39.608Z,101174.13
2023-04-26T11:32:07.039Z,101175.81
2023-04-26T11:34:34.352Z,101181.06
2023-04-26T11:37:06.346Z,101177.06
2023-04-26T11:39:33.502Z,101178.31
2023-04-26T11:42:11.454Z,101175.63
2023-04-26T11:44:39.838Z,101178.47
2023-04-26T11:47:07.796Z,101175.44
2023-04-26T11:49:36.611Z,101171.94
2023-04-26T11:52:04.925Z,101175.03
2023-04-26T11:54:37.507Z,101178.06
2023-04-26T11:57:18.158Z,101174.63
2023-04-26T11:59:45.781Z,101176.69
2023-04-26T12:02:12.538Z,101175.28
2023-04-26T12:04:41.183Z,101179.22
2023-04-26T12:07:08.432Z,101184.16
2023-04-26T12:09:36.580Z,101191.78
2023-04-26T12:12:07.658Z,101196.72
2023-04-26T12:14:36.123Z,101194.03
2023-04-26T12:17:05.976Z,101204.63
2023-04-26T12:19:40.505Z,101198.94
2023-04-26T12:22:08.649Z,101197.94
2023-04-26T12:24:38.454Z,101194.53
2023-04-26T12:27:06.995Z,101197.03
2023-04-26T12:29:34.655Z,101194.81
2023-04-26T12:32:02.297Z,101187.03
2023-04-26T12:34:28.955Z,101191.72
2023-04-26T12:36:55.667Z,101192.22
2023-04-26T12:39:22.273Z,101198.44
2023-04-26T12:41:49.263Z,101199.06
2023-04-26T12:44:15.914Z,101196.78
2023-04-26T12:46:42.729Z,101192.13
2023-04-26T12:49:09.443Z,101196.56
2023-04-26T12:51:36.055Z,101190.47
2023-04-26T12:54:02.942Z,101192.38
2023-04-26T12:56:29.916Z,101195.13
2023-04-26T12:58:56.829Z,101188.22
2023-04-26T13:01:23.417Z,101193.19
2023-04-26T13:03:50.241Z,101193.47
2023-04-26T13:06:17.255Z,101182.06
2023-04-26T13:08:43.777Z,101191.63
2023-04-26T13:11:10.427Z,101191.63
2023-04-26T13:13:43.598Z,101187.66
2023-04-26T13:16:11.872Z,101193.13
2023-04-26T13:18:39.117Z,101180.06
2023-04-26T13:21:05.963Z,101188.91
2023-04-26T13:23:32.571Z,101181.91
2023-04-26T13:25:59.177Z,101185.88
2023-04-26T13:28:25.917Z,101185.25
2023-04-26T13:30:52.811Z,101193.63
2023-04-26T13:33:21.036Z,101184.81
2023-04-26T13:35:47.920Z,101183.25
2023-04-26T13:38:14.612Z,101191.41
2023-04-26T13:40:41.499Z,101182.06
2023-04-26T13:43:08.060Z,101187.09
2023-04-26T13:45:36.618Z,101189.28
2023-04-26T13:48:03.332Z,101192.00
2023-04-26T13:50:29.939Z,101186.34
2023-04-26T13:52:56.690Z,101183.59
2023-04-26T13:55:23.707Z,101182.31
2023-04-26T13:57:50.356Z,101175.81
2023-04-26T14:00:17.381Z,101186.53
2023-04-26T14:02:46.218Z,101177.13
2023-04-26T14:05:13.251Z,101174.53
2023-04-26T14:07:41.374Z,101180.72
2023-04-26T14:10:08.827Z,101181.22
2023-04-26T14:12:35.493Z,101180.81
2023-04-26T14:15:04.300Z,101180.44
2023-04-26T14:17:32.396Z,101185.09
2023-04-26T14:19:59.076Z,101179.06
2023-04-26T14:22:27.056Z,101184.44
2023-04-26T14:24:53.653Z,101177.69
2023-04-26T14:27:20.326Z,101185.63
2023-04-26T14:29:46.884Z,101192.09
2023-04-26T14:32:13.708Z,101180.28
2023-04-26T14:34:40.444Z,101185.13
2023-04-26T14:37:07.696Z,101176.97
2023-04-26T14:39:34.345Z,101179.59
2023-04-26T14:42:01.694Z,101176.56
2023-04-26T14:44:28.274Z,101175.81
2023-04-26T14:46:54.852Z,101179.53
2023-04-26T14:49:21.478Z,101173.59
2023-04-26T14:51:48.043Z,101174.50
2023-04-26T14:54:15.591Z,101177.28
2023-04-26T14:56:42.224Z,101178.06
2023-04-26T14:59:08.818Z,101178.28
2023-04-26T15:01:35.506Z,101166.78
2023-04-26T15:04:02.254Z,101167.84
2023-04-26T15:06:30.742Z,101167.84
2023-04-26T15:08:57.439Z,101162.25
2023-04-26T15:11:24.087Z,101161.94
2023-04-26T15:13:50.709Z,101172.56
2023-04-26T15:16:17.504Z,101163.72
2023-04-26T15:18:44.227Z,101166.59
2023-04-26T15:21:19.324Z,101172.06
2023-04-26T15:23:46.476Z,101174.75
2023-04-26T15:26:13.645Z,101168.84
2023-04-26T15:28:40.646Z,101164.22
2023-04-26T15:31:11.125Z,101165.06
2023-04-26T15:33:37.839Z,101170.97
2023-04-26T15:36:05.293Z,101166.06
2023-04-26T15:38:34.153Z,101155.22
2023-04-26T15:41:01.033Z,101167.47
2023-04-26T15:43:27.794Z,101166.53
2023-04-26T15:45:54.715Z,101161.59
2023-04-26T15:48:21.919Z,101161.75
2023-04-26T15:50:48.423Z,101162.41
2023-04-26T15:53:14.993Z,101165.16
2023-04-26T15:55:41.601Z,101162.66
2023-04-26T15:58:08.170Z,101168.81
2023-04-26T16:00:36.297Z,101161.97
2023-04-26T16:03:03.073Z,101172.06
2023-04-26T16:05:31.468Z,101164.63
2023-04-26T16:07:59.488Z,101165.03
2023-04-26T16:10:26.470Z,101155.25
2023-04-26T16:12:53.011Z,101153.47
2023-04-26T16:15:19.817Z,101154.44
2023-04-26T16:17:46.535Z,101160.66
2023-04-26T16:20:13.156Z,101157.53
2023-04-26T16:22:39.801Z,101155.00
2023-04-26T16:25:06.887Z,101146.44
2023-04-26T16:27:33.697Z,101151.25
2023-04-26T16:30:00.360Z,101148.06
2023-04-26T16:32:27.201Z,101145.31
2023-04-26T16:34:53.805Z,101141.38
2023-04-26T16:37:20.820Z,101143.72
2023-04-26T16:39:47.384Z,101143.47
2023-04-26T16:42:13.936Z,101145.66
2023-04-26T16:44:40.733Z,101148.66
2023-04-26T16:47:07.316Z,101149.66
2023-04-26T16:49:34.175Z,101146.38
2023-04-26T16:52:01.310Z,101143.19
2023-04-26T16:54:28.265Z,101145.03
2023-04-26T16:56:54.920Z,101147.72
2023-04-26T16:59:21.643Z,101152.53
2023-04-26T17:01:48.304Z,101164.41
2023-04-26T17:04:15.068Z,101159.44
2023-04-26T17:06:41.730Z,101157.47
2023-04-26T17:09:08.792Z,101157.56
2023-04-26T17:11:37.289Z,101162.31
2023-04-26T17:14:04.409Z,101166.59
2023-04-26T17:16:31.181Z,101165.78
2023-04-26T17:18:58.359Z,101168.91
2023-04-26T17:21:25.282Z,101170.41
2023-04-26T17:23:52.203Z,101171.00
2023-04-26T17:26:18.769Z,101169.66
2023-04-26T17:28:45.381Z,101173.59
2023-04-26T17:31:12.023Z,101171.50
2023-04-26T17:33:38.607Z,101180.31
2023-04-26T17:36:05.560Z,101185.03
2023-04-26T17:38:32.125Z,101178.00
2023-04-26T17:40:59.585Z,101179.25
2023-04-26T17:43:26.142Z,101176.72
2023-04-26T17:45:52.948Z,101171.00
2023-04-26T17:48:19.637Z,101173.59
2023-04-26T17:50:46.362Z,101181.63
2023-04-26T17:53:13.054Z,101176.63
2023-04-26T17:55:40.023Z,101186.06
2023-04-26T17:58:06.563Z,101185.06
2023-04-26T18:00:33.157Z,101178.25
2023-04-26T18:03:02.811Z,101184.91
2023-04-26T18:05:29.612Z,101189.50
2023-04-26T18:07:56.506Z,101189.25
2023-04-26T18:10:23.206Z,101186.91
2023-04-26T18:12:49.886Z,101182.50
2023-04-26T18:15:16.881Z,101184.81
2023-04-26T18:17:43.693Z,101184.13
2023-04-26T18:20:13.000Z,101187.16
2023-04-26T18:22:40.129Z,101187.03
2023-04-26T18:25:07.260Z,101192.09
2023-04-26T18:27:33.934Z,101185.72
2023-04-26T18:30:00.684Z,101188.28
2023-04-26T18:32:27.385Z,101189.25
2023-04-26T18:34:53.950Z,101187.97
2023-04-26T18:37:20.484Z,101191.28
2023-04-26T18:39:47.071Z,101196.69
2023-04-26T18:42:13.621Z,101195.47
2023-04-26T18:44:40.216Z,101195.75
2023-04-26T18:47:06.814Z,101206.22
2023-04-26T18:49:33.490Z,101194.41
2023-04-26T18:52:00.704Z,101200.19
2023-04-26T18:54:27.777Z,101198.84
2023-04-26T18:56:54.345Z,101208.47
2023-04-26T18:59:20.837Z,101201.75
2023-04-26T19:01:49.073Z,101199.34
2023-04-26T19:04:15.987Z,101201.28
2023-04-26T19:06:42.793Z,101204.03
2023-04-26T19:09:11.719Z,101203.16
2023-04-26T19:11:38.433Z,101206.63
2023-04-26T19:14:05.152Z,101208.25
2023-04-26T19:16:31.996Z,101215.78
2023-04-26T19:18:58.717Z,101208.03
2023-04-26T19:21:25.429Z,101225.25
2023-04-26T19:23:52.070Z,101215.91
2023-04-26T19:26:18.589Z,101222.31
2023-04-26T19:28:45.230Z,101224.38
2023-04-26T19:31:11.745Z,101228.63
2023-04-26T19:33:38.291Z,101234.59
2023-04-26T19:36:04.989Z,101235.28
2023-04-26T19:38:31.807Z,101233.59
2023-04-26T19:40:58.317Z,101236.09
2023-04-26T19:43:24.859Z,101236.97
2023-04-26T19:45:51.388Z,101234.81
2023-04-26T19:48:17.906Z,101227.88
2023-04-26T19:50:46.164Z,101241.78
2023-04-26T19:53:14.449Z,101235.56
2023-04-26T19:55:42.221Z,101236.66
2023-04-26T19:58:10.321Z,101233.13
2023-04-26T20:00:37.825Z,101235.78
2023-04-26T20:03:05.306Z,101229.34
2023-04-26T20:05:32.215Z,101236.28
2023-04-26T20:07:58.884Z,101233.59
2023-04-26T20:10:25.574Z,101234.13
2023-04-26T20:12:53.114Z,101241.03
2023-04-26T20:15:19.758Z,101222.50
2023-04-26T20:17:46.403Z,101243.38
2023-04-26T20:20:13.125Z,101240.94
2023-04-26T20:22:40.676Z,101249.44
2023-04-26T20:25:07.823Z,101245.97
2023-04-26T20:27:34.883Z,101238.34
2023-04-26T20:30:01.777Z,101243.44
2023-04-26T20:32:28.517Z,101243.81
2023-04-26T20:34:55.149Z,101247.44
2023-04-26T20:37:22.052Z,101247.50
2023-04-26T20:39:49.030Z,101243.91
2023-04-26T20:42:16.051Z,101244.47
2023-04-26T20:44:43.034Z,101245.34
2023-04-26T20:47:09.703Z,101243.69
2023-04-26T20:49:36.307Z,101246.41
2023-04-26T20:52:03.010Z,101245.34
2023-04-26T20:54:29.554Z,101243.38
2023-04-26T20:56:56.128Z,101245.91
2023-04-26T20:59:25.042Z,101243.97
2023-04-26T21:01:53.138Z,101250.66
2023-04-26T21:04:20.014Z,101256.41
2023-04-26T21:06:46.710Z,101255.47
2023-04-26T21:09:13.485Z,101257.66
2023-04-26T21:11:40.144Z,101253.81
2023-04-26T21:14:07.157Z,101256.22
2023-04-26T21:16:33.857Z,101262.97
2023-04-26T21:19:00.444Z,101262.38
2023-04-26T21:21:28.609Z,101257.88
2023-04-26T21:23:55.193Z,101259.19
2023-04-26T21:26:21.855Z,101258.91
2023-04-26T21:28:48.594Z,101263.97
2023-04-26T21:31:15.490Z,101258.97
2023-04-26T21:33:42.121Z,101259.94
2023-04-26T21:36:09.009Z,101256.34
2023-04-26T21:38:35.637Z,101259.38
2023-04-26T21:41:02.207Z,101264.41
2023-04-26T21:43:28.841Z,101263.94
2023-04-26T21:45:56.396Z,101268.94
2023-04-26T21:48:22.977Z,101267.94
2023-04-26T21:50:49.934Z,101266.06
2023-04-26T21:53:17.326Z,101265.06
2023-04-26T21:55:43.850Z,101262.72
2023-04-26T21:58:10.345Z,101261.84
2023-04-26T22:00:37.320Z,101263.75
2023-04-26T22:03:04.111Z,101259.94
2023-04-26T22:05:30.988Z,101261.38
2023-04-26T22:07:57.544Z,101264.47
2023-04-26T22:10:24.131Z,101267.63
2023-04-26T22:12:50.749Z,101262.97
2023-04-26T22:15:17.326Z,101269.59
2023-04-26T22:17:44.045Z,101268.72
2023-04-26T22:20:12.003Z,101265.03
2023-04-26T22:22:38.622Z,101268.38
2023-04-26T22:25:05.907Z,101282.31
2023-04-26T22:27:32.556Z,101279.53
2023-04-26T22:30:06.242Z,101291.47
2023-04-26T22:32:39.248Z,101286.25
2023-04-26T22:35:06.279Z,101290.88
2023-04-26T22:37:32.839Z,101293.63
2023-04-26T22:39:59.398Z,101289.31
2023-04-26T22:42:25.941Z,101291.97
2023-04-26T22:44:52.755Z,101290.97
2023-04-26T22:47:22.779Z,101300.13
2023-04-26T22:49:49.704Z,101299.03
2023-04-26T22:54:43.766Z,101298.94
2023-04-26T22:57:10.320Z,101295.25
2023-04-26T22:59:36.915Z,101299.69
2023-04-26T23:02:03.482Z,101300.28
2023-04-26T23:04:30.152Z,101301.88
2023-04-26T23:06:56.811Z,101305.97
2023-04-26T23:09:23.441Z,101306.84
2023-04-26T23:11:50.057Z,101308.34
2023-04-26T23:14:17.090Z,101306.47
2023-04-26T23:16:43.695Z,101310.53
2023-04-26T23:19:11.254Z,101304.56
2023-04-26T23:21:37.963Z,101311.13
2023-04-26T23:24:04.850Z,101307.81
2023-04-26T23:26:32.050Z,101319.78
2023-04-26T23:28:58.558Z,101320.88
2023-04-26T23:31:25.356Z,101323.44
2023-04-26T23:33:51.919Z,101321.16
2023-04-26T23:36:18.467Z,101327.81
2023-04-26T23:38:45.006Z,101329.47
2023-04-26T23:41:11.567Z,101330.81
2023-04-26T23:43:38.171Z,101323.75
2023-04-26T23:46:04.734Z,101327.91
2023-04-26T23:48:31.277Z,101318.63
2023-04-26T23:50:57.820Z,101320.34
2023-04-26T23:53:24.398Z,101327.00
2023-04-26T23:55:51.193Z,101322.56
2023-04-26T23:58:17.734Z,101313.94
